sensor_id;sensor_type;location;lat;lon;timestamp;P1;durP1;ratioP1;P2;durP2;ratioP2
30896;SDS011;64229;52.246;21.054;2023-09-07T00:01:01;19.13;;;7.87;;
30896;SDS011;64229;52.246;21.054;2023-09-07T00:03:28;17.30;;;7.32;;
30896;SDS011;64229;52.246;21.054;2023-09-07T00:05:54;20.77;;;8.37;;
30896;SDS011;64229;52.246;21.054;2023-09-07T00:08:19;12.37;;;7.40;;
30896;SDS011;64229;52.246;21.054;2023-09-07T00:10:44;12.47;;;6.47;;
30896;SDS011;64229;52.246;21.054;2023-09-07T00:13:09;13.38;;;7.22;;
30896;SDS011;64229;52.246;21.054;2023-09-07T00:15:36;23.00;;;10.40;;
30896;SDS011;64229;52.246;21.054;2023-09-07T00:18:02;20.75;;;8.45;;
30896;SDS011;64229;52.246;21.054;2023-09-07T00:20:28;18.88;;;8.05;;
30896;SDS011;64229;52.246;21.054;2023-09-07T00:22:53;14.35;;;7.43;;
30896;SDS011;64229;52.246;21.054;2023-09-07T00:25:18;13.57;;;8.03;;
30896;SDS011;64229;52.246;21.054;2023-09-07T00:27:45;19.70;;;8.73;;
30896;SDS011;64229;52.246;21.054;2023-09-07T00:30:10;20.03;;;7.70;;
30896;SDS011;64229;52.246;21.054;2023-09-07T00:32:36;19.33;;;8.75;;
30896;SDS011;64229;52.246;21.054;2023-09-07T00:35:03;16.02;;;8.55;;
30896;SDS011;64229;52.246;21.054;2023-09-07T00:37:29;16.13;;;7.55;;
30896;SDS011;64229;52.246;21.054;2023-09-07T00:39:54;20.02;;;8.25;;
30896;SDS011;64229;52.246;21.054;2023-09-07T00:42:19;16.95;;;8.07;;
30896;SDS011;64229;52.246;21.054;2023-09-07T00:44:44;15.07;;;7.30;;
30896;SDS011;64229;52.246;21.054;2023-09-07T00:47:10;17.27;;;8.37;;
30896;SDS011;64229;52.246;21.054;2023-09-07T00:49:36;17.98;;;8.80;;
30896;SDS011;64229;52.246;21.054;2023-09-07T00:52:02;21.15;;;8.98;;
30896;SDS011;64229;52.246;21.054;2023-09-07T00:54:28;17.88;;;8.35;;
30896;SDS011;64229;52.246;21.054;2023-09-07T00:56:54;19.58;;;8.65;;
30896;SDS011;64229;52.246;21.054;2023-09-07T00:59:20;22.65;;;9.27;;
30896;SDS011;64229;52.246;21.054;2023-09-07T01:01:45;19.83;;;8.47;;
30896;SDS011;64229;52.246;21.054;2023-09-07T01:04:10;18.27;;;8.80;;
30896;SDS011;64229;52.246;21.054;2023-09-07T01:06:37;18.15;;;7.28;;
30896;SDS011;64229;52.246;21.054;2023-09-07T01:09:15;15.73;;;7.90;;
30896;SDS011;64229;52.246;21.054;2023-09-07T01:11:44;19.70;;;8.63;;
30896;SDS011;64229;52.246;21.054;2023-09-07T01:14:09;15.30;;;8.33;;
30896;SDS011;64229;52.246;21.054;2023-09-07T01:16:35;12.50;;;7.20;;
30896;SDS011;64229;52.246;21.054;2023-09-07T01:19:03;13.13;;;7.00;;
30896;SDS011;64229;52.246;21.054;2023-09-07T01:21:37;13.38;;;7.55;;
30896;SDS011;64229;52.246;21.054;2023-09-07T01:24:07;22.35;;;8.05;;
30896;SDS011;64229;52.246;21.054;2023-09-07T01:26:37;17.30;;;7.55;;
30896;SDS011;64229;52.246;21.054;2023-09-07T01:29:05;16.08;;;7.28;;
30896;SDS011;64229;52.246;21.054;2023-09-07T01:31:34;12.45;;;8.48;;
30896;SDS011;64229;52.246;21.054;2023-09-07T01:34:00;14.95;;;7.88;;
30896;SDS011;64229;52.246;21.054;2023-09-07T01:36:26;17.00;;;8.10;;
30896;SDS011;64229;52.246;21.054;2023-09-07T01:38:51;16.10;;;7.03;;
30896;SDS011;64229;52.246;21.054;2023-09-07T01:41:16;13.03;;;7.60;;
30896;SDS011;64229;52.246;21.054;2023-09-07T01:43:41;18.67;;;7.10;;
30896;SDS011;64229;52.246;21.054;2023-09-07T01:46:07;14.23;;;7.27;;
30896;SDS011;64229;52.246;21.054;2023-09-07T01:48:32;13.43;;;7.57;;
30896;SDS011;64229;52.246;21.054;2023-09-07T01:50:57;17.97;;;7.37;;
30896;SDS011;64229;52.246;21.054;2023-09-07T01:53:22;16.33;;;8.17;;
30896;SDS011;64229;52.246;21.054;2023-09-07T01:55:48;13.63;;;7.20;;
30896;SDS011;64229;52.246;21.054;2023-09-07T01:58:13;20.10;;;8.60;;
30896;SDS011;64229;52.246;21.054;2023-09-07T02:00:39;18.83;;;8.50;;
30896;SDS011;64229;52.246;21.054;2023-09-07T02:03:04;16.30;;;8.25;;
30896;SDS011;64229;52.246;21.054;2023-09-07T02:05:30;22.45;;;7.72;;
30896;SDS011;64229;52.246;21.054;2023-09-07T02:07:57;20.17;;;8.88;;
30896;SDS011;64229;52.246;21.054;2023-09-07T02:10:23;15.95;;;7.90;;
30896;SDS011;64229;52.246;21.054;2023-09-07T02:12:48;18.10;;;7.90;;
30896;SDS011;64229;52.246;21.054;2023-09-07T02:15:14;16.20;;;8.15;;
30896;SDS011;64229;52.246;21.054;2023-09-07T02:17:39;13.53;;;7.90;;
30896;SDS011;64229;52.246;21.054;2023-09-07T02:20:04;17.47;;;8.50;;
30896;SDS011;64229;52.246;21.054;2023-09-07T02:22:35;13.75;;;7.30;;
30896;SDS011;64229;52.246;21.054;2023-09-07T02:25:00;15.05;;;8.05;;
30896;SDS011;64229;52.246;21.054;2023-09-07T02:27:26;11.98;;;7.25;;
30896;SDS011;64229;52.246;21.054;2023-09-07T02:29:51;12.37;;;7.57;;
30896;SDS011;64229;52.246;21.054;2023-09-07T02:32:16;12.07;;;7.90;;
30896;SDS011;64229;52.246;21.054;2023-09-07T02:34:41;12.50;;;8.20;;
30896;SDS011;64229;52.246;21.054;2023-09-07T02:37:07;15.05;;;7.20;;
30896;SDS011;64229;52.246;21.054;2023-09-07T02:39:33;13.35;;;7.38;;
30896;SDS011;64229;52.246;21.054;2023-09-07T02:41:58;14.70;;;8.82;;
30896;SDS011;64229;52.246;21.054;2023-09-07T02:44:24;16.90;;;8.13;;
30896;SDS011;64229;52.246;21.054;2023-09-07T02:46:49;11.63;;;6.57;;
30896;SDS011;64229;52.246;21.054;2023-09-07T02:49:14;15.13;;;8.03;;
30896;SDS011;64229;52.246;21.054;2023-09-07T02:51:40;12.88;;;7.63;;
30896;SDS011;64229;52.246;21.054;2023-09-07T02:54:05;12.57;;;7.60;;
30896;SDS011;64229;52.246;21.054;2023-09-07T02:56:31;14.05;;;7.57;;
30896;SDS011;64229;52.246;21.054;2023-09-07T02:58:56;16.40;;;7.70;;
30896;SDS011;64229;52.246;21.054;2023-09-07T03:01:21;12.50;;;7.47;;
30896;SDS011;64229;52.246;21.054;2023-09-07T03:03:47;15.13;;;7.93;;
30896;SDS011;64229;52.246;21.054;2023-09-07T03:06:13;14.82;;;7.75;;
30896;SDS011;64229;52.246;21.054;2023-09-07T03:08:41;23.63;;;8.38;;
30896;SDS011;64229;52.246;21.054;2023-09-07T03:11:07;19.63;;;7.85;;
30896;SDS011;64229;52.246;21.054;2023-09-07T03:13:33;21.27;;;8.00;;
30896;SDS011;64229;52.246;21.054;2023-09-07T03:15:59;20.17;;;8.40;;
30896;SDS011;64229;52.246;21.054;2023-09-07T03:18:25;21.02;;;8.40;;
30896;SDS011;64229;52.246;21.054;2023-09-07T03:20:52;17.90;;;9.00;;
30896;SDS011;64229;52.246;21.054;2023-09-07T03:23:19;15.60;;;7.93;;
30896;SDS011;64229;52.246;21.054;2023-09-07T03:25:45;19.30;;;8.38;;
30896;SDS011;64229;52.246;21.054;2023-09-07T03:28:10;18.60;;;9.13;;
30896;SDS011;64229;52.246;21.054;2023-09-07T03:30:35;20.23;;;8.40;;
30896;SDS011;64229;52.246;21.054;2023-09-07T03:33:01;18.20;;;8.85;;
30896;SDS011;64229;52.246;21.054;2023-09-07T03:35:28;19.05;;;8.52;;
30896;SDS011;64229;52.246;21.054;2023-09-07T03:37:53;19.13;;;9.27;;
30896;SDS011;64229;52.246;21.054;2023-09-07T03:40:18;15.50;;;8.07;;
30896;SDS011;64229;52.246;21.054;2023-09-07T03:42:43;20.70;;;9.70;;
30896;SDS011;64229;52.246;21.054;2023-09-07T03:45:11;15.73;;;8.55;;
30896;SDS011;64229;52.246;21.054;2023-09-07T03:47:36;21.20;;;9.97;;
30896;SDS011;64229;52.246;21.054;2023-09-07T03:50:02;21.10;;;8.88;;
30896;SDS011;64229;52.246;21.054;2023-09-07T03:52:28;18.80;;;8.77;;
30896;SDS011;64229;52.246;21.054;2023-09-07T03:54:53;13.77;;;8.55;;
30896;SDS011;64229;52.246;21.054;2023-09-07T03:57:20;18.52;;;10.25;;
30896;SDS011;64229;52.246;21.054;2023-09-07T03:59:45;19.13;;;9.37;;
30896;SDS011;64229;52.246;21.054;2023-09-07T04:02:13;23.08;;;10.52;;
30896;SDS011;64229;52.246;21.054;2023-09-07T04:04:38;23.00;;;11.15;;
30896;SDS011;64229;52.246;21.054;2023-09-07T04:07:03;41.80;;;20.20;;
30896;SDS011;64229;52.246;21.054;2023-09-07T04:09:29;28.20;;;15.67;;
30896;SDS011;64229;52.246;21.054;2023-09-07T04:11:54;31.57;;;18.10;;
30896;SDS011;64229;52.246;21.054;2023-09-07T04:14:19;31.00;;;15.00;;
30896;SDS011;64229;52.246;21.054;2023-09-07T04:16:44;19.43;;;11.63;;
30896;SDS011;64229;52.246;21.054;2023-09-07T04:19:10;24.63;;;13.07;;
30896;SDS011;64229;52.246;21.054;2023-09-07T04:21:35;27.83;;;16.20;;
30896;SDS011;64229;52.246;21.054;2023-09-07T04:24:01;29.55;;;15.48;;
30896;SDS011;64229;52.246;21.054;2023-09-07T04:26:27;19.58;;;11.30;;
30896;SDS011;64229;52.246;21.054;2023-09-07T04:28:52;22.08;;;12.60;;
30896;SDS011;64229;52.246;21.054;2023-09-07T04:31:17;18.75;;;11.40;;
30896;SDS011;64229;52.246;21.054;2023-09-07T04:33:43;24.50;;;11.93;;
30896;SDS011;64229;52.246;21.054;2023-09-07T04:36:09;22.17;;;12.55;;
30896;SDS011;64229;52.246;21.054;2023-09-07T04:38:35;22.27;;;11.23;;
30896;SDS011;64229;52.246;21.054;2023-09-07T04:41:07;20.35;;;12.13;;
30896;SDS011;64229;52.246;21.054;2023-09-07T04:43:33;22.30;;;12.10;;
30896;SDS011;64229;52.246;21.054;2023-09-07T04:45:59;19.67;;;12.25;;
30896;SDS011;64229;52.246;21.054;2023-09-07T04:48:24;18.97;;;12.20;;
30896;SDS011;64229;52.246;21.054;2023-09-07T04:50:57;25.57;;;13.20;;
30896;SDS011;64229;52.246;21.054;2023-09-07T04:53:23;23.95;;;13.50;;
30896;SDS011;64229;52.246;21.054;2023-09-07T04:55:48;20.55;;;13.20;;
30896;SDS011;64229;52.246;21.054;2023-09-07T04:58:13;21.57;;;12.03;;
30896;SDS011;64229;52.246;21.054;2023-09-07T05:00:38;23.33;;;12.73;;
30896;SDS011;64229;52.246;21.054;2023-09-07T05:03:04;21.90;;;12.20;;
30896;SDS011;64229;52.246;21.054;2023-09-07T05:05:29;24.00;;;12.83;;
30896;SDS011;64229;52.246;21.054;2023-09-07T05:07:54;20.58;;;12.90;;
30896;SDS011;64229;52.246;21.054;2023-09-07T05:10:19;23.87;;;12.60;;
30896;SDS011;64229;52.246;21.054;2023-09-07T05:12:45;25.90;;;12.20;;
30896;SDS011;64229;52.246;21.054;2023-09-07T05:15:10;18.63;;;10.90;;
30896;SDS011;64229;52.246;21.054;2023-09-07T05:17:35;26.80;;;13.88;;
30896;SDS011;64229;52.246;21.054;2023-09-07T05:20:01;25.00;;;11.82;;
30896;SDS011;64229;52.246;21.054;2023-09-07T05:22:26;28.60;;;13.32;;
30896;SDS011;64229;52.246;21.054;2023-09-07T05:24:51;27.13;;;11.98;;
30896;SDS011;64229;52.246;21.054;2023-09-07T05:27:16;31.90;;;14.20;;
30896;SDS011;64229;52.246;21.054;2023-09-07T05:29:42;23.57;;;12.93;;
30896;SDS011;64229;52.246;21.054;2023-09-07T05:32:07;32.90;;;13.43;;
30896;SDS011;64229;52.246;21.054;2023-09-07T05:34:34;28.30;;;13.57;;
30896;SDS011;64229;52.246;21.054;2023-09-07T05:37:00;30.93;;;14.40;;
30896;SDS011;64229;52.246;21.054;2023-09-07T05:39:25;25.80;;;13.57;;
30896;SDS011;64229;52.246;21.054;2023-09-07T05:41:50;32.67;;;14.13;;
30896;SDS011;64229;52.246;21.054;2023-09-07T05:44:15;32.80;;;14.03;;
30896;SDS011;64229;52.246;21.054;2023-09-07T05:46:41;24.90;;;13.70;;
30896;SDS011;64229;52.246;21.054;2023-09-07T05:49:06;27.87;;;13.73;;
30896;SDS011;64229;52.246;21.054;2023-09-07T05:51:31;32.77;;;15.20;;
30896;SDS011;64229;52.246;21.054;2023-09-07T05:53:56;29.97;;;14.47;;
30896;SDS011;64229;52.246;21.054;2023-09-07T05:56:22;26.88;;;14.10;;
30896;SDS011;64229;52.246;21.054;2023-09-07T05:58:48;40.53;;;16.50;;
30896;SDS011;64229;52.246;21.054;2023-09-07T06:01:13;31.37;;;16.33;;
30896;SDS011;64229;52.246;21.054;2023-09-07T06:03:38;29.50;;;14.68;;
30896;SDS011;64229;52.246;21.054;2023-09-07T06:06:04;25.73;;;13.40;;
30896;SDS011;64229;52.246;21.054;2023-09-07T06:08:29;36.40;;;13.73;;
30896;SDS011;64229;52.246;21.054;2023-09-07T06:10:55;27.73;;;13.00;;
30896;SDS011;64229;52.246;21.054;2023-09-07T06:13:20;28.97;;;13.93;;
30896;SDS011;64229;52.246;21.054;2023-09-07T06:15:45;32.43;;;15.23;;
30896;SDS011;64229;52.246;21.054;2023-09-07T06:18:11;32.45;;;13.80;;
30896;SDS011;64229;52.246;21.054;2023-09-07T06:20:36;19.30;;;12.80;;
30896;SDS011;64229;52.246;21.054;2023-09-07T06:23:01;31.88;;;15.32;;
30896;SDS011;64229;52.246;21.054;2023-09-07T06:25:27;31.58;;;14.20;;
30896;SDS011;64229;52.246;21.054;2023-09-07T06:27:52;32.17;;;14.60;;
30896;SDS011;64229;52.246;21.054;2023-09-07T06:30:17;27.23;;;13.75;;
30896;SDS011;64229;52.246;21.054;2023-09-07T06:32:43;35.00;;;15.98;;
30896;SDS011;64229;52.246;21.054;2023-09-07T06:35:09;37.67;;;14.38;;
30896;SDS011;64229;52.246;21.054;2023-09-07T06:37:35;26.38;;;13.82;;
30896;SDS011;64229;52.246;21.054;2023-09-07T06:40:01;25.02;;;13.02;;
30896;SDS011;64229;52.246;21.054;2023-09-07T06:42:28;23.75;;;12.82;;
30896;SDS011;64229;52.246;21.054;2023-09-07T06:44:55;26.20;;;14.75;;
30896;SDS011;64229;52.246;21.054;2023-09-07T06:47:21;21.08;;;12.02;;
30896;SDS011;64229;52.246;21.054;2023-09-07T06:49:46;20.83;;;11.00;;
30896;SDS011;64229;52.246;21.054;2023-09-07T06:52:11;25.73;;;12.73;;
30896;SDS011;64229;52.246;21.054;2023-09-07T06:54:37;21.77;;;10.23;;
30896;SDS011;64229;52.246;21.054;2023-09-07T06:57:06;25.45;;;12.73;;
30896;SDS011;64229;52.246;21.054;2023-09-07T06:59:33;23.42;;;11.07;;
30896;SDS011;64229;52.246;21.054;2023-09-07T07:01:59;23.67;;;11.18;;
30896;SDS011;64229;52.246;21.054;2023-09-07T07:04:25;24.92;;;11.88;;
30896;SDS011;64229;52.246;21.054;2023-09-07T07:06:51;23.85;;;10.38;;
30896;SDS011;64229;52.246;21.054;2023-09-07T07:09:16;17.00;;;10.33;;
30896;SDS011;64229;52.246;21.054;2023-09-07T07:11:41;19.00;;;11.00;;
30896;SDS011;64229;52.246;21.054;2023-09-07T07:14:07;24.75;;;9.90;;
30896;SDS011;64229;52.246;21.054;2023-09-07T07:16:33;31.58;;;11.63;;
30896;SDS011;64229;52.246;21.054;2023-09-07T07:18:59;26.95;;;10.82;;
30896;SDS011;64229;52.246;21.054;2023-09-07T07:21:24;23.40;;;10.93;;
30896;SDS011;64229;52.246;21.054;2023-09-07T07:23:49;30.23;;;11.38;;
30896;SDS011;64229;52.246;21.054;2023-09-07T07:26:15;21.10;;;9.05;;
30896;SDS011;64229;52.246;21.054;2023-09-07T07:28:40;20.17;;;9.97;;
30896;SDS011;64229;52.246;21.054;2023-09-07T07:31:09;24.35;;;11.10;;
30896;SDS011;64229;52.246;21.054;2023-09-07T07:33:35;29.45;;;10.90;;
30896;SDS011;64229;52.246;21.054;2023-09-07T07:36:00;23.92;;;10.68;;
30896;SDS011;64229;52.246;21.054;2023-09-07T07:38:26;23.52;;;10.63;;
30896;SDS011;64229;52.246;21.054;2023-09-07T07:40:51;13.68;;;8.93;;
30896;SDS011;64229;52.246;21.054;2023-09-07T07:43:18;22.27;;;9.98;;
30896;SDS011;64229;52.246;21.054;2023-09-07T07:45:43;18.05;;;9.95;;
30896;SDS011;64229;52.246;21.054;2023-09-07T07:48:09;15.47;;;8.83;;
30896;SDS011;64229;52.246;21.054;2023-09-07T07:50:37;15.32;;;9.13;;
30896;SDS011;64229;52.246;21.054;2023-09-07T07:53:04;21.90;;;10.20;;
30896;SDS011;64229;52.246;21.054;2023-09-07T07:55:33;21.50;;;11.02;;
30896;SDS011;64229;52.246;21.054;2023-09-07T07:58:03;22.05;;;11.00;;
30896;SDS011;64229;52.246;21.054;2023-09-07T08:00:30;16.45;;;9.75;;
30896;SDS011;64229;52.246;21.054;2023-09-07T08:02:56;18.80;;;9.45;;
30896;SDS011;64229;52.246;21.054;2023-09-07T08:05:21;15.18;;;9.50;;
30896;SDS011;64229;52.246;21.054;2023-09-07T08:07:46;20.52;;;10.52;;
30896;SDS011;64229;52.246;21.054;2023-09-07T08:10:12;29.57;;;11.00;;
30896;SDS011;64229;52.246;21.054;2023-09-07T08:12:37;22.25;;;10.50;;
30896;SDS011;64229;52.246;21.054;2023-09-07T08:15:03;19.17;;;9.40;;
30896;SDS011;64229;52.246;21.054;2023-09-07T08:17:29;21.00;;;9.80;;
30896;SDS011;64229;52.246;21.054;2023-09-07T08:19:54;19.73;;;11.00;;
30896;SDS011;64229;52.246;21.054;2023-09-07T08:22:21;19.70;;;10.20;;
30896;SDS011;64229;52.246;21.054;2023-09-07T08:24:47;18.50;;;9.43;;
30896;SDS011;64229;52.246;21.054;2023-09-07T08:27:13;18.00;;;10.70;;
30896;SDS011;64229;52.246;21.054;2023-09-07T08:29:43;18.23;;;9.38;;
30896;SDS011;64229;52.246;21.054;2023-09-07T08:32:12;23.52;;;10.15;;
30896;SDS011;64229;52.246;21.054;2023-09-07T08:34:38;23.15;;;10.02;;
30896;SDS011;64229;52.246;21.054;2023-09-07T08:37:06;21.52;;;9.48;;
30896;SDS011;64229;52.246;21.054;2023-09-07T08:39:35;16.92;;;8.48;;
30896;SDS011;64229;52.246;21.054;2023-09-07T08:42:01;18.15;;;8.25;;
30896;SDS011;64229;52.246;21.054;2023-09-07T08:44:27;19.20;;;8.82;;
30896;SDS011;64229;52.246;21.054;2023-09-07T08:46:54;17.60;;;8.40;;
30896;SDS011;64229;52.246;21.054;2023-09-07T08:49:20;18.83;;;7.53;;
30896;SDS011;64229;52.246;21.054;2023-09-07T08:51:48;16.70;;;8.48;;
30896;SDS011;64229;52.246;21.054;2023-09-07T08:54:14;22.02;;;7.60;;
30896;SDS011;64229;52.246;21.054;2023-09-07T08:56:39;15.00;;;7.78;;
30896;SDS011;64229;52.246;21.054;2023-09-07T08:59:05;13.13;;;7.65;;
30896;SDS011;64229;52.246;21.054;2023-09-07T09:01:30;19.58;;;7.80;;
30896;SDS011;64229;52.246;21.054;2023-09-07T09:03:59;14.02;;;6.80;;
30896;SDS011;64229;52.246;21.054;2023-09-07T09:06:25;16.77;;;7.20;;
30896;SDS011;64229;52.246;21.054;2023-09-07T09:08:51;16.85;;;7.80;;
30896;SDS011;64229;52.246;21.054;2023-09-07T09:11:18;10.55;;;6.18;;
30896;SDS011;64229;52.246;21.054;2023-09-07T09:13:45;17.63;;;6.78;;
30896;SDS011;64229;52.246;21.054;2023-09-07T09:16:11;17.20;;;6.18;;
30896;SDS011;64229;52.246;21.054;2023-09-07T09:18:53;10.40;;;5.95;;
30896;SDS011;64229;52.246;21.054;2023-09-07T09:21:19;12.05;;;5.57;;
30896;SDS011;64229;52.246;21.054;2023-09-07T09:23:47;14.70;;;5.20;;
30896;SDS011;64229;52.246;21.054;2023-09-07T09:26:16;10.27;;;5.05;;
30896;SDS011;64229;52.246;21.054;2023-09-07T09:28:42;8.55;;;5.05;;
30896;SDS011;64229;52.246;21.054;2023-09-07T09:31:11;12.07;;;4.97;;
30896;SDS011;64229;52.246;21.054;2023-09-07T09:33:40;7.28;;;4.63;;
30896;SDS011;64229;52.246;21.054;2023-09-07T09:36:06;12.32;;;4.22;;
30896;SDS011;64229;52.246;21.054;2023-09-07T09:38:33;13.05;;;4.35;;
30896;SDS011;64229;52.246;21.054;2023-09-07T09:40:59;6.47;;;3.80;;
30896;SDS011;64229;52.246;21.054;2023-09-07T09:43:25;9.52;;;4.03;;
30896;SDS011;64229;52.246;21.054;2023-09-07T09:45:51;9.65;;;3.97;;
30896;SDS011;64229;52.246;21.054;2023-09-07T09:48:18;13.30;;;3.72;;
30896;SDS011;64229;52.246;21.054;2023-09-07T09:50:48;12.57;;;4.32;;
30896;SDS011;64229;52.246;21.054;2023-09-07T09:53:18;13.73;;;4.30;;
30896;SDS011;64229;52.246;21.054;2023-09-07T09:55:45;7.90;;;3.97;;
30896;SDS011;64229;52.246;21.054;2023-09-07T09:58:12;7.38;;;3.30;;
30896;SDS011;64229;52.246;21.054;2023-09-07T10:00:38;8.98;;;4.00;;
30896;SDS011;64229;52.246;21.054;2023-09-07T10:03:08;7.60;;;3.08;;
30896;SDS011;64229;52.246;21.054;2023-09-07T10:05:38;10.32;;;3.90;;
30896;SDS011;64229;52.246;21.054;2023-09-07T10:08:07;11.02;;;3.65;;
30896;SDS011;64229;52.246;21.054;2023-09-07T10:10:35;8.35;;;3.53;;
30896;SDS011;64229;52.246;21.054;2023-09-07T10:13:01;5.95;;;3.28;;
30896;SDS011;64229;52.246;21.054;2023-09-07T10:15:27;6.82;;;2.75;;
30896;SDS011;64229;52.246;21.054;2023-09-07T10:23:12;5.97;;;3.42;;
30896;SDS011;64229;52.246;21.054;2023-09-07T10:25:38;13.17;;;4.00;;
30896;SDS011;64229;52.246;21.054;2023-09-07T10:28:03;6.47;;;3.20;;
30896;SDS011;64229;52.246;21.054;2023-09-07T10:30:29;4.65;;;2.88;;
30896;SDS011;64229;52.246;21.054;2023-09-07T10:32:54;5.95;;;3.20;;
30896;SDS011;64229;52.246;21.054;2023-09-07T10:35:19;3.53;;;2.90;;
30896;SDS011;64229;52.246;21.054;2023-09-07T10:37:49;6.38;;;3.00;;
30896;SDS011;64229;52.246;21.054;2023-09-07T10:40:21;4.05;;;2.80;;
30896;SDS011;64229;52.246;21.054;2023-09-07T10:42:47;7.57;;;3.17;;
30896;SDS011;64229;52.246;21.054;2023-09-07T10:45:13;6.65;;;3.78;;
30896;SDS011;64229;52.246;21.054;2023-09-07T10:47:45;5.97;;;3.20;;
30896;SDS011;64229;52.246;21.054;2023-09-07T10:50:14;6.38;;;3.35;;
30896;SDS011;64229;52.246;21.054;2023-09-07T10:52:42;5.47;;;2.83;;
30896;SDS011;64229;52.246;21.054;2023-09-07T10:55:08;6.53;;;2.88;;
30896;SDS011;64229;52.246;21.054;2023-09-07T10:57:42;4.13;;;3.13;;
30896;SDS011;64229;52.246;21.054;2023-09-07T11:00:11;6.38;;;2.75;;
30896;SDS011;64229;52.246;21.054;2023-09-07T11:02:38;4.70;;;2.83;;
30896;SDS011;64229;52.246;21.054;2023-09-07T11:05:04;7.15;;;3.08;;
30896;SDS011;64229;52.246;21.054;2023-09-07T11:07:31;6.40;;;2.70;;
30896;SDS011;64229;52.246;21.054;2023-09-07T11:09:56;4.63;;;2.55;;
30896;SDS011;64229;52.246;21.054;2023-09-07T11:12:22;4.93;;;2.72;;
30896;SDS011;64229;52.246;21.054;2023-09-07T11:14:48;4.60;;;2.80;;
30896;SDS011;64229;52.246;21.054;2023-09-07T11:17:14;5.93;;;2.63;;
30896;SDS011;64229;52.246;21.054;2023-09-07T11:19:41;4.63;;;2.60;;
30896;SDS011;64229;52.246;21.054;2023-09-07T11:22:09;5.32;;;3.03;;
30896;SDS011;64229;52.246;21.054;2023-09-07T11:24:34;3.60;;;2.50;;
30896;SDS011;64229;52.246;21.054;2023-09-07T11:27:00;4.87;;;2.80;;
30896;SDS011;64229;52.246;21.054;2023-09-07T11:29:25;3.00;;;2.20;;
30896;SDS011;64229;52.246;21.054;2023-09-07T11:31:51;3.85;;;2.40;;
30896;SDS011;64229;52.246;21.054;2023-09-07T11:34:16;8.50;;;2.65;;
30896;SDS011;64229;52.246;21.054;2023-09-07T11:36:42;5.10;;;2.50;;
30896;SDS011;64229;52.246;21.054;2023-09-07T11:39:08;5.13;;;2.40;;
30896;SDS011;64229;52.246;21.054;2023-09-07T11:41:43;8.30;;;2.83;;
30896;SDS011;64229;52.246;21.054;2023-09-07T11:44:09;2.95;;;2.50;;
30896;SDS011;64229;52.246;21.054;2023-09-07T11:46:36;5.95;;;2.42;;
30896;SDS011;64229;52.246;21.054;2023-09-07T11:49:01;3.25;;;2.60;;
30896;SDS011;64229;52.246;21.054;2023-09-07T11:51:28;4.18;;;3.00;;
30896;SDS011;64229;52.246;21.054;2023-09-07T11:53:53;5.40;;;2.50;;
30896;SDS011;64229;52.246;21.054;2023-09-07T11:56:18;3.97;;;2.33;;
30896;SDS011;64229;52.246;21.054;2023-09-07T11:58:44;6.28;;;3.08;;
30896;SDS011;64229;52.246;21.054;2023-09-07T12:01:09;4.80;;;2.40;;
30896;SDS011;64229;52.246;21.054;2023-09-07T12:03:35;5.80;;;2.58;;
30896;SDS011;64229;52.246;21.054;2023-09-07T12:06:00;6.43;;;2.43;;
30896;SDS011;64229;52.246;21.054;2023-09-07T12:08:25;6.55;;;2.20;;
30896;SDS011;64229;52.246;21.054;2023-09-07T12:10:51;4.53;;;2.17;;
30896;SDS011;64229;52.246;21.054;2023-09-07T12:13:16;4.65;;;2.15;;
30896;SDS011;64229;52.246;21.054;2023-09-07T12:15:41;8.32;;;2.20;;
30896;SDS011;64229;52.246;21.054;2023-09-07T12:18:07;4.00;;;2.40;;
30896;SDS011;64229;52.246;21.054;2023-09-07T12:20:32;3.33;;;2.13;;
30896;SDS011;64229;52.246;21.054;2023-09-07T12:22:59;3.72;;;2.28;;
30896;SDS011;64229;52.246;21.054;2023-09-07T12:25:25;4.88;;;2.22;;
30896;SDS011;64229;52.246;21.054;2023-09-07T12:27:50;2.95;;;2.10;;
30896;SDS011;64229;52.246;21.054;2023-09-07T12:30:16;6.03;;;2.28;;
30896;SDS011;64229;52.246;21.054;2023-09-07T12:32:43;3.97;;;2.17;;
30896;SDS011;64229;52.246;21.054;2023-09-07T12:35:08;5.30;;;1.90;;
30896;SDS011;64229;52.246;21.054;2023-09-07T12:37:37;5.63;;;2.67;;
30896;SDS011;64229;52.246;21.054;2023-09-07T12:40:03;2.97;;;2.10;;
30896;SDS011;64229;52.246;21.054;2023-09-07T12:42:36;3.33;;;2.17;;
30896;SDS011;64229;52.246;21.054;2023-09-07T12:45:02;3.15;;;2.00;;
30896;SDS011;64229;52.246;21.054;2023-09-07T12:47:29;3.38;;;2.30;;
30896;SDS011;64229;52.246;21.054;2023-09-07T12:49:55;4.53;;;1.98;;
30896;SDS011;64229;52.246;21.054;2023-09-07T12:52:21;9.13;;;2.30;;
30896;SDS011;64229;52.246;21.054;2023-09-07T12:54:46;5.68;;;2.00;;
30896;SDS011;64229;52.246;21.054;2023-09-07T12:57:11;4.13;;;2.23;;
30896;SDS011;64229;52.246;21.054;2023-09-07T12:59:37;4.43;;;2.10;;
30896;SDS011;64229;52.246;21.054;2023-09-07T13:02:02;3.77;;;2.30;;
30896;SDS011;64229;52.246;21.054;2023-09-07T13:04:28;7.30;;;2.30;;
30896;SDS011;64229;52.246;21.054;2023-09-07T13:06:53;8.80;;;2.47;;
30896;SDS011;64229;52.246;21.054;2023-09-07T13:09:18;6.97;;;2.10;;
30896;SDS011;64229;52.246;21.054;2023-09-07T13:11:43;3.50;;;1.90;;
30896;SDS011;64229;52.246;21.054;2023-09-07T13:14:09;4.23;;;2.30;;
30896;SDS011;64229;52.246;21.054;2023-09-07T13:16:34;3.03;;;1.95;;
30896;SDS011;64229;52.246;21.054;2023-09-07T13:18:59;2.78;;;1.58;;
30896;SDS011;64229;52.246;21.054;2023-09-07T13:21:25;4.55;;;2.10;;
30896;SDS011;64229;52.246;21.054;2023-09-07T13:23:50;4.15;;;1.70;;
30896;SDS011;64229;52.246;21.054;2023-09-07T13:26:15;2.70;;;1.73;;
30896;SDS011;64229;52.246;21.054;2023-09-07T13:28:41;5.00;;;1.73;;
30896;SDS011;64229;52.246;21.054;2023-09-07T13:31:06;2.87;;;2.00;;
30896;SDS011;64229;52.246;21.054;2023-09-07T13:33:31;3.20;;;1.80;;
30896;SDS011;64229;52.246;21.054;2023-09-07T13:35:57;5.47;;;2.17;;
30896;SDS011;64229;52.246;21.054;2023-09-07T13:38:22;3.15;;;2.10;;
30896;SDS011;64229;52.246;21.054;2023-09-07T13:40:47;5.20;;;2.00;;
30896;SDS011;64229;52.246;21.054;2023-09-07T13:43:12;4.37;;;1.73;;
30896;SDS011;64229;52.246;21.054;2023-09-07T13:45:38;4.97;;;2.53;;
30896;SDS011;64229;52.246;21.054;2023-09-07T13:48:03;5.60;;;1.80;;
30896;SDS011;64229;52.246;21.054;2023-09-07T13:50:29;2.35;;;1.63;;
30896;SDS011;64229;52.246;21.054;2023-09-07T13:52:55;5.32;;;1.75;;
30896;SDS011;64229;52.246;21.054;2023-09-07T13:55:21;4.35;;;1.85;;
30896;SDS011;64229;52.246;21.054;2023-09-07T13:57:46;3.25;;;2.08;;
30896;SDS011;64229;52.246;21.054;2023-09-07T14:00:12;5.88;;;2.10;;
30896;SDS011;64229;52.246;21.054;2023-09-07T14:02:38;2.70;;;1.80;;
30896;SDS011;64229;52.246;21.054;2023-09-07T14:05:03;4.73;;;1.80;;
30896;SDS011;64229;52.246;21.054;2023-09-07T14:07:29;2.70;;;1.60;;
30896;SDS011;64229;52.246;21.054;2023-09-07T14:09:55;3.45;;;1.70;;
30896;SDS011;64229;52.246;21.054;2023-09-07T14:12:20;5.38;;;1.85;;
30896;SDS011;64229;52.246;21.054;2023-09-07T14:14:46;3.08;;;1.92;;
30896;SDS011;64229;52.246;21.054;2023-09-07T14:17:12;4.00;;;2.10;;
30896;SDS011;64229;52.246;21.054;2023-09-07T14:19:38;4.38;;;1.80;;